Time;durP1;ratioP1;P1;durP2;ratioP2;P2;SDS_P1;SDS_P2;PMS_P1;PMS_P2;Temp;Humidity;BMP_temperature;BMP_pressure;BME280_temperature;BME280_humidity;BME280_pressure;Samples;Min_cycle;Max_cycle;Signal;HPM_P1;HPM_P2
2021/07/31 00:00:48;;;;;;;12.25;7.20;;;;;;;18.65;70.06;99765.69;5023023;28;20442;-83
2021/07/31 00:03:16;;;;;;;11.82;6.57;;;;;;;18.58;70.07;99767.31;5045751;28;20049;-79
2021/07/31 00:05:47;;;;;;;9.73;6.70;;;;;;;18.53;70.19;99763.47;5015943;28;20163;-80
2021/07/31 00:08:14;;;;;;;18.77;6.82;;;;;;;18.55;70.56;99759.66;5031791;28;20100;-84
2021/07/31 00:10:41;;;;;;;13.20;6.97;;;;;;;18.77;70.46;99768.06;5014974;28;20052;-81
2021/07/31 00:13:09;;;;;;;14.48;6.90;;;;;;;18.79;70.12;99766.06;5026323;28;20118;-82
2021/07/31 00:15:36;;;;;;;13.25;6.63;;;;;;;18.65;70.47;99764.84;5036120;28;20139;-79
2021/07/31 00:18:03;;;;;;;9.43;6.60;;;;;;;18.53;70.12;99771.47;5046718;28;20547;-80
2021/07/31 00:20:30;;;;;;;10.88;5.97;;;;;;;18.54;71.08;99767.81;5048022;28;20483;-80
2021/07/31 00:22:58;;;;;;;11.18;6.13;;;;;;;18.66;70.65;99763.84;5028363;28;20201;-78
2021/07/31 00:25:25;;;;;;;9.73;6.18;;;;;;;18.56;70.48;99749.84;5049241;28;20420;-80
2021/07/31 00:27:52;;;;;;;10.38;6.25;;;;;;;18.41;71.05;99749.59;5020594;28;20488;-82
2021/07/31 00:30:26;;;;;;;10.02;6.00;;;;;;;18.30;71.35;99745.41;5019076;28;20072;-83
2021/07/31 00:32:54;;;;;;;11.85;6.15;;;;;;;18.16;71.49;99743.38;5021756;28;20053;-82
2021/07/31 00:35:22;;;;;;;10.55;6.10;;;;;;;18.12;71.64;99744.69;5005809;28;20103;-79
2021/07/31 00:37:49;;;;;;;10.95;6.00;;;;;;;18.17;71.91;99740.53;5011063;28;20098;-81
2021/07/31 00:40:16;;;;;;;13.98;6.43;;;;;;;18.29;71.45;99732.28;5035397;28;20053;-79
2021/07/31 00:42:44;;;;;;;10.50;4.93;;;;;;;18.17;71.07;99737.88;5021992;28;20488;-84
2021/07/31 00:45:12;;;;;;;10.95;5.82;;;;;;;18.09;70.90;99737.84;5052552;28;20057;-79
2021/07/31 00:47:41;;;;;;;12.18;6.15;;;;;;;18.11;72.16;99729.72;5015587;28;20067;-81
2021/07/31 00:50:09;;;;;;;8.23;5.88;;;;;;;18.14;71.67;99724.88;5026791;28;20072;-81
2021/07/31 00:52:38;;;;;;;7.45;5.45;;;;;;;18.12;71.64;99732.19;5007965;28;20072;-79
2021/07/31 00:55:06;;;;;;;14.18;5.35;;;;;;;18.23;70.51;99731.06;5034890;28;20076;-79
2021/07/31 00:57:34;;;;;;;16.27;5.32;;;;;;;18.19;71.98;99735.03;4995658;28;20131;-78
2021/07/31 01:00:03;;;;;;;10.52;5.65;;;;;;;18.13;71.14;99733.88;5010183;28;20599;-78
2021/07/31 01:02:30;;;;;;;10.38;5.47;;;;;;;18.20;70.95;99734.06;4991885;28;20148;-77
2021/07/31 01:04:57;;;;;;;11.27;6.32;;;;;;;18.22;70.18;99730.22;5034682;28;20059;-78
2021/07/31 01:07:25;;;;;;;7.80;4.97;;;;;;;18.16;70.68;99738.06;5027441;28;20049;-80
2021/07/31 01:09:52;;;;;;;8.63;4.43;;;;;;;18.14;70.85;99743.50;5052466;28;20056;-79
2021/07/31 01:12:20;;;;;;;8.88;4.85;;;;;;;18.12;70.40;99745.53;5024194;28;20049;-80
2021/07/31 01:14:47;;;;;;;11.88;5.85;;;;;;;18.16;70.21;99740.72;5025917;28;20465;-84
2021/07/31 01:17:14;;;;;;;10.10;4.90;;;;;;;18.03;70.67;99745.66;5023244;28;20128;-79
2021/07/31 01:19:41;;;;;;;11.15;4.50;;;;;;;17.93;71.63;99751.09;5001880;28;20053;-80
2021/07/31 01:22:08;;;;;;;8.57;4.93;;;;;;;17.98;71.50;99738.13;5026515;28;20692;-82
2021/07/31 01:24:36;;;;;;;6.07;4.97;;;;;;;18.08;70.97;99741.50;5031191;28;20176;-79
2021/07/31 01:27:04;;;;;;;8.85;4.55;;;;;;;18.16;71.15;99738.88;5030873;28;20041;-81
2021/07/31 01:29:31;;;;;;;12.43;4.60;;;;;;;18.28;70.62;99742.09;5032413;28;20144;-79
2021/07/31 01:31:58;;;;;;;6.97;4.32;;;;;;;18.41;69.10;99739.78;5023630;28;20041;-80
2021/07/31 01:34:26;;;;;;;5.38;3.80;;;;;;;18.53;68.69;99737.66;5032473;28;20056;-78
2021/07/31 01:36:53;;;;;;;7.38;4.38;;;;;;;18.67;67.88;99738.84;5014508;28;20067;-82
2021/07/31 01:39:20;;;;;;;7.93;4.13;;;;;;;18.65;68.40;99739.03;5016331;28;20091;-78
2021/07/31 01:41:48;;;;;;;8.73;4.50;;;;;;;18.82;67.26;99739.06;5045613;28;20055;-80
2021/07/31 01:44:15;;;;;;;5.85;4.30;;;;;;;18.69;68.22;99740.41;5029030;28;20296;-78
2021/07/31 01:46:42;;;;;;;7.13;3.88;;;;;;;18.63;68.27;99732.16;5015146;28;20084;-82
2021/07/31 01:49:10;;;;;;;9.07;3.90;;;;;;;18.61;68.08;99732.34;4998099;28;20045;-78
2021/07/31 01:51:37;;;;;;;9.15;4.00;;;;;;;18.59;68.33;99730.81;5031936;28;20037;-78
2021/07/31 01:54:04;;;;;;;13.77;4.80;;;;;;;18.79;67.35;99747.41;5049474;28;20095;-79
2021/07/31 01:56:32;;;;;;;7.05;4.20;;;;;;;18.86;66.81;99741.22;5027959;28;20044;-81
2021/07/31 01:59:00;;;;;;;6.85;4.28;;;;;;;18.91;66.39;99733.59;5022557;28;20575;-79
2021/07/31 02:01:29;;;;;;;6.35;3.95;;;;;;;19.15;65.41;99735.41;5044592;28;20503;-79
2021/07/31 02:03:56;;;;;;;6.63;4.00;;;;;;;19.23;64.60;99731.94;5015066;28;20041;-79
2021/07/31 02:06:23;;;;;;;11.95;3.60;;;;;;;19.14;64.99;99730.25;5043802;28;20073;-78
2021/07/31 02:08:51;;;;;;;11.80;3.83;;;;;;;19.12;64.56;99741.09;5029471;28;20055;-83
2021/07/31 02:11:18;;;;;;;10.25;3.72;;;;;;;19.03;65.42;99738.59;5051206;28;20467;-81
2021/07/31 02:13:45;;;;;;;5.80;4.18;;;;;;;19.02;65.56;99742.25;5022905;28;20076;-82
2021/07/31 02:16:23;;;;;;;9.23;4.20;;;;;;;18.74;66.47;99737.25;5025150;28;20141;-80
2021/07/31 02:18:51;;;;;;;10.68;4.45;;;;;;;18.83;65.64;99744.25;5008617;28;20057;-77
2021/07/31 02:21:22;;;;;;;6.80;4.13;;;;;;;18.80;65.71;99752.56;5037017;28;20129;-78
2021/07/31 02:23:49;;;;;;;13.15;4.32;;;;;;;18.83;66.17;99767.41;5012706;28;20447;-80
2021/07/31 02:26:17;;;;;;;9.55;4.28;;;;;;;18.88;65.91;99762.41;5020232;28;20136;-79
2021/07/31 02:28:44;;;;;;;9.93;4.00;;;;;;;18.98;65.72;99763.09;5001880;28;20434;-81
2021/07/31 02:31:11;;;;;;;5.03;3.80;;;;;;;18.96;65.31;99765.09;5026984;28;20098;-79
2021/07/31 02:33:40;;;;;;;9.90;4.13;;;;;;;18.93;65.49;99770.75;5021072;28;20073;-80
2021/07/31 02:36:08;;;;;;;6.38;3.80;;;;;;;18.96;65.51;99773.94;5029724;28;20049;-79
2021/07/31 02:38:36;;;;;;;5.80;3.67;;;;;;;19.08;64.85;99770.94;5026832;28;20132;-76
2021/07/31 02:41:04;;;;;;;9.43;3.70;;;;;;;19.20;64.71;99777.59;5033777;28;20147;-83
2021/07/31 02:43:31;;;;;;;9.05;3.55;;;;;;;19.20;64.62;99778.44;4997464;28;20327;-79
2021/07/31 02:46:03;;;;;;;8.52;3.95;;;;;;;19.28;64.59;99776.78;5014054;28;20084;-82
2021/07/31 02:48:34;;;;;;;11.65;4.38;;;;;;;19.32;64.67;99780.75;5029756;28;20183;-79
2021/07/31 02:51:06;;;;;;;6.38;3.28;;;;;;;19.35;64.28;99778.59;5030424;28;20053;-79
2021/07/31 02:53:34;;;;;;;10.68;3.90;;;;;;;19.42;63.61;99786.78;5051894;28;20415;-79
2021/07/31 02:56:01;;;;;;;6.90;3.22;;;;;;;19.35;63.07;99772.44;5018974;28;20073;-80
2021/07/31 02:58:28;;;;;;;5.70;2.97;;;;;;;19.46;62.30;99780.09;5037159;28;20088;-79
2021/07/31 03:00:56;;;;;;;6.63;3.00;;;;;;;19.38;61.99;99785.44;5020625;28;20045;-77
2021/07/31 03:03:23;;;;;;;8.73;3.63;;;;;;;19.40;61.79;99784.25;5045222;28;20053;-79
2021/07/31 03:05:58;;;;;;;7.70;2.55;;;;;;;19.39;61.35;99789.78;5023838;28;20064;-81
2021/07/31 03:08:27;;;;;;;4.75;2.53;;;;;;;19.43;60.55;99783.94;5025480;28;20116;-81
2021/07/31 03:11:03;;;;;;;5.47;2.17;;;;;;;19.25;61.38;99785.13;5036893;28;20450;-79
2021/07/31 03:13:30;;;;;;;4.53;2.58;;;;;;;19.31;61.15;99784.44;5012936;28;20049;-79
2021/07/31 03:15:57;;;;;;;6.70;2.78;;;;;;;19.36;61.20;99790.97;5026789;28;20208;-81
2021/07/31 03:18:25;;;;;;;6.70;3.25;;;;;;;19.36;61.09;99787.44;5024315;28;20045;-83
2021/07/31 03:20:54;;;;;;;11.68;3.92;;;;;;;19.30;61.61;99788.94;5033066;28;20045;-77
2021/07/31 03:23:23;;;;;;;7.57;2.90;;;;;;;19.28;61.45;99792.78;5012844;28;20084;-83
2021/07/31 03:26:00;;;;;;;9.25;3.05;;;;;;;19.27;61.26;99796.44;5013990;28;20535;-78
2021/07/31 03:28:27;;;;;;;7.13;2.40;;;;;;;19.28;60.77;99796.28;5007713;28;20523;-79
2021/07/31 03:30:55;;;;;;;9.07;3.03;;;;;;;19.19;61.16;99790.13;5008697;28;20102;-81
2021/07/31 03:33:22;;;;;;;13.07;3.03;;;;;;;19.12;61.26;99789.09;5008714;28;20072;-79
2021/07/31 03:35:52;;;;;;;5.68;2.97;;;;;;;19.14;61.43;99787.13;5033026;28;20121;-80
2021/07/31 03:38:19;;;;;;;6.07;2.45;;;;;;;19.11;61.12;99791.94;5016099;28;20069;-79
2021/07/31 03:40:46;;;;;;;4.80;2.30;;;;;;;19.13;60.99;99790.75;5043509;28;20048;-79
2021/07/31 03:43:14;;;;;;;6.47;2.90;;;;;;;19.15;60.91;99799.44;5027714;28;20057;-79
2021/07/31 03:45:41;;;;;;;4.00;2.40;;;;;;;19.22;61.33;99802.28;5009830;28;20167;-78
2021/07/31 03:48:09;;;;;;;5.40;2.55;;;;;;;19.06;61.58;99800.44;5043605;28;20053;-78
2021/07/31 03:50:40;;;;;;;5.75;2.17;;;;;;;19.03;61.71;99811.44;5050768;28;20080;-78
2021/07/31 03:53:07;;;;;;;5.05;2.47;;;;;;;19.00;61.76;99810.91;5024156;28;20045;-80
2021/07/31 03:55:34;;;;;;;4.88;2.47;;;;;;;18.98;62.36;99819.09;5024485;28;20044;-82
2021/07/31 03:58:03;;;;;;;5.05;2.38;;;;;;;19.00;62.19;99830.44;5022102;28;20208;-81
2021/07/31 04:00:30;;;;;;;6.22;2.58;;;;;;;18.98;62.09;99832.44;5030090;28;20084;-80
2021/07/31 04:02:57;;;;;;;3.55;2.38;;;;;;;18.98;62.03;99840.44;5023572;28;20080;-79
2021/07/31 04:05:25;;;;;;;4.13;1.90;;;;;;;18.91;62.00;99834.06;5020534;28;20591;-77
2021/07/31 04:07:52;;;;;;;5.28;2.00;;;;;;;18.91;62.23;99837.59;5046974;28;20041;-82
2021/07/31 04:10:19;;;;;;;5.30;2.38;;;;;;;18.90;62.01;99840.41;5027904;28;20453;-77
2021/07/31 04:12:46;;;;;;;5.13;2.00;;;;;;;18.78;62.37;99839.91;5023288;28;20111;-84
2021/07/31 04:15:14;;;;;;;5.65;2.25;;;;;;;18.79;62.61;99848.72;5048306;28;20068;-78
2021/07/31 04:17:41;;;;;;;5.38;2.10;;;;;;;18.77;63.02;99846.22;5030361;28;20047;-80
2021/07/31 04:20:08;;;;;;;5.90;2.58;;;;;;;18.79;63.29;99849.56;5036027;28;20075;-78
2021/07/31 04:22:35;;;;;;;2.47;1.90;;;;;;;18.91;62.60;99852.75;5005366;28;20068;-80
2021/07/31 04:25:03;;;;;;;6.13;2.28;;;;;;;18.82;62.48;99846.59;5002963;28;20152;-79
2021/07/31 04:27:31;;;;;;;4.15;2.22;;;;;;;18.93;62.19;99848.94;5049906;28;21302;-78
2021/07/31 04:30:00;;;;;;;7.30;1.92;;;;;;;19.16;61.83;99848.31;5020177;28;20575;-78
2021/07/31 04:32:28;;;;;;;3.28;2.10;;;;;;;19.47;60.45;99853.84;5032216;28;20092;-81
2021/07/31 04:34:55;;;;;;;7.45;2.45;;;;;;;19.77;60.43;99854.19;5051484;28;20049;-80
2021/07/31 04:37:22;;;;;;;3.72;1.85;;;;;;;20.87;57.22;99863.25;5050368;28;20127;-79
2021/07/31 04:39:49;;;;;;;3.97;1.85;;;;;;;22.20;52.78;99863.75;5010804;28;20507;-80
2021/07/31 04:42:16;;;;;;;3.90;1.77;;;;;;;23.56;48.74;99862.25;5014863;28;20055;-76
2021/07/31 04:44:44;;;;;;;3.83;1.42;;;;;;;24.07;46.89;99860.22;5031181;28;20099;-79
2021/07/31 04:47:11;;;;;;;2.92;1.58;;;;;;;23.94;47.04;99854.72;5030283;28;20049;-80
2021/07/31 04:49:38;;;;;;;3.63;1.73;;;;;;;25.37;43.44;99856.66;5000147;28;20080;-77
2021/07/31 04:52:07;;;;;;;4.75;1.75;;;;;;;26.09;42.00;99860.41;5047569;28;20047;-83
2021/07/31 04:54:40;;;;;;;4.07;1.50;;;;;;;26.43;40.58;99866.53;5036172;28;20072;-79
2021/07/31 04:57:09;;;;;;;4.20;1.75;;;;;;;26.33;39.81;99867.00;5033693;28;20081;-80
2021/07/31 04:59:36;;;;;;;3.30;1.75;;;;;;;26.69;39.73;99860.25;5016433;28;20555;-79
2021/07/31 05:02:04;;;;;;;9.45;1.75;;;;;;;26.04;40.18;99867.47;5020272;28;20044;-80
2021/07/31 05:04:31;;;;;;;3.72;1.50;;;;;;;26.91;39.01;99858.91;5028211;28;20057;-79
2021/07/31 05:06:59;;;;;;;3.45;1.38;;;;;;;28.02;37.22;99865.66;5025445;28;20465;-79
2021/07/31 05:09:26;;;;;;;2.88;1.67;;;;;;;28.05;36.78;99862.50;5019014;28;20497;-81
2021/07/31 05:11:53;;;;;;;6.97;1.73;;;;;;;28.70;34.99;99867.44;5029655;28;20444;-79
2021/07/31 05:14:21;;;;;;;5.32;1.75;;;;;;;28.67;35.07;99867.91;5029444;28;20046;-79
2021/07/31 05:16:48;;;;;;;3.70;1.30;;;;;;;29.89;32.68;99871.16;5024766;28;20106;-81
2021/07/31 05:19:15;;;;;;;2.83;1.23;;;;;;;29.33;33.72;99874.34;5011107;28;20049;-82
2021/07/31 05:21:43;;;;;;;4.25;1.52;;;;;;;29.77;32.76;99879.31;5050215;28;20144;-78
2021/07/31 05:24:10;;;;;;;2.25;1.40;;;;;;;30.34;31.89;99877.91;5009857;28;20552;-80
2021/07/31 05:26:40;;;;;;;7.22;2.10;;;;;;;28.79;34.08;99881.50;5033241;28;20404;-82
2021/07/31 05:29:07;;;;;;;5.40;1.55;;;;;;;29.87;32.55;99878.72;5033246;28;20434;-79
2021/07/31 05:31:36;;;;;;;9.30;2.33;;;;;;;29.60;32.82;99872.09;5019229;28;20045;-80
2021/07/31 05:34:03;;;;;;;6.07;1.38;;;;;;;30.33;31.48;99884.41;5021930;28;20160;-80
2021/07/31 05:36:34;;;;;;;10.63;1.98;;;;;;;30.62;30.56;99882.56;5046869;28;20132;-82
2021/07/31 05:39:03;;;;;;;5.90;1.40;;;;;;;31.15;30.25;99879.56;5026057;28;20424;-78
2021/07/31 05:41:30;;;;;;;7.00;1.65;;;;;;;31.74;29.04;99879.25;5034433;28;20033;-78
2021/07/31 05:43:57;;;;;;;5.53;1.80;;;;;;;30.86;29.93;99884.19;5052659;28;20048;-77
2021/07/31 05:46:24;;;;;;;4.10;1.40;;;;;;;30.83;30.21;99883.84;5042990;28;20048;-82
2021/07/31 05:48:52;;;;;;;6.78;1.40;;;;;;;31.04;30.36;99890.53;5040890;28;20045;-84
2021/07/31 05:51:20;;;;;;;4.65;1.50;;;;;;;31.78;28.57;99886.69;5026002;28;20045;-85
2021/07/31 05:53:47;;;;;;;3.88;1.40;;;;;;;30.07;31.13;99891.09;5028505;28;20547;-79
2021/07/31 05:56:17;;;;;;;3.53;1.70;;;;;;;31.64;29.28;99888.09;5053561;28;21907;-79
2021/07/31 05:58:44;;;;;;;8.13;1.70;;;;;;;31.82;28.78;99899.81;5008504;28;20072;-82
2021/07/31 06:01:11;;;;;;;2.83;1.20;;;;;;;31.23;29.25;99895.50;5048526;28;20132;-79
2021/07/31 06:03:39;;;;;;;9.02;1.60;;;;;;;31.32;29.33;99884.28;5014804;28;20071;-79
2021/07/31 06:06:06;;;;;;;3.75;1.90;;;;;;;30.51;30.40;99890.50;5026483;28;20055;-81
2021/07/31 06:08:34;;;;;;;3.03;1.40;;;;;;;30.56;30.52;99897.13;5028416;28;20075;-78
2021/07/31 06:11:03;;;;;;;6.38;1.63;;;;;;;31.46;28.54;99891.88;5027285;28;20053;-81
2021/07/31 06:13:31;;;;;;;5.35;1.40;;;;;;;30.07;30.71;99891.09;5046975;28;20057;-82
2021/07/31 06:15:58;;;;;;;5.32;1.33;;;;;;;31.49;28.75;99887.84;5030064;28;20100;-80
2021/07/31 06:18:26;;;;;;;3.80;1.38;;;;;;;32.35;27.13;99887.56;5027338;28;20045;-79
2021/07/31 06:20:53;;;;;;;6.35;1.20;;;;;;;32.73;26.07;99893.00;5026042;28;20505;-80
2021/07/31 06:23:20;;;;;;;5.88;1.48;;;;;;;32.92;25.67;99884.53;5046360;28;20421;-78
2021/07/31 06:25:47;;;;;;;2.78;1.75;;;;;;;33.13;25.91;99885.56;5025034;28;20470;-80
2021/07/31 06:28:14;;;;;;;4.47;1.52;;;;;;;33.20;26.38;99888.94;5045025;28;20495;-84
2021/07/31 06:30:43;;;;;;;4.53;1.98;;;;;;;32.86;26.27;99894.50;5032475;28;20470;-79
2021/07/31 06:33:11;;;;;;;8.68;2.28;;;;;;;32.01;26.82;99895.78;5027217;28;20128;-78
2021/07/31 06:35:38;;;;;;;11.68;1.92;;;;;;;32.23;26.54;99899.38;5033608;28;20511;-78
2021/07/31 06:38:06;;;;;;;5.70;1.40;;;;;;;32.76;25.58;99892.50;5045917;28;20056;-80
2021/07/31 06:40:33;;;;;;;4.50;1.80;;;;;;;29.94;29.57;99900.31;5050804;28;20072;-79
2021/07/31 06:43:00;;;;;;;5.40;1.35;;;;;;;32.41;26.29;99892.03;5048029;28;20047;-81
2021/07/31 06:45:29;;;;;;;4.63;1.98;;;;;;;33.99;24.34;99891.00;5025092;28;20401;-79
2021/07/31 06:47:56;;;;;;;9.32;1.73;;;;;;;32.83;25.37;99888.75;4994139;28;20045;-78
2021/07/31 06:50:23;;;;;;;12.27;1.77;;;;;;;33.84;23.84;99888.16;5026518;28;20076;-83
2021/07/31 06:52:50;;;;;;;11.20;1.45;;;;;;;33.17;24.39;99883.97;5048533;28;20080;-78
2021/07/31 06:55:18;;;;;;;2.70;1.20;;;;;;;32.99;24.99;99885.16;5033237;28;20079;-79
2021/07/31 06:57:45;;;;;;;5.25;1.58;;;;;;;31.75;26.73;99878.22;5014114;28;20135;-81
2021/07/31 07:00:12;;;;;;;6.10;1.58;;;;;;;33.40;24.57;99877.38;5051221;28;20479;-77
2021/07/31 07:02:39;;;;;;;11.50;2.00;;;;;;;33.72;24.14;99874.66;5028213;28;20098;-79
2021/07/31 07:05:07;;;;;;;2.45;1.30;;;;;;;33.70;23.75;99871.41;5026664;28;20480;-79
2021/07/31 07:07:35;;;;;;;6.47;1.65;;;;;;;35.14;22.49;99884.78;5030375;28;20157;-83
2021/07/31 07:10:05;;;;;;;9.82;1.60;;;;;;;35.90;21.31;99873.88;5013106;28;20084;-80
2021/07/31 07:12:32;;;;;;;6.68;1.30;;;;;;;34.23;23.29;99884.09;5004044;28;20387;-79
2021/07/31 07:15:00;;;;;;;4.47;1.40;;;;;;;32.60;25.25;99877.00;5025567;28;20045;-81
2021/07/31 07:17:27;;;;;;;5.57;1.35;;;;;;;33.60;24.10;99874.88;5047374;28;20118;-79
2021/07/31 07:19:54;;;;;;;7.43;2.00;;;;;;;33.03;24.24;99872.66;5027411;28;20069;-79
2021/07/31 07:22:21;;;;;;;5.10;1.40;;;;;;;32.96;24.83;99866.56;5040078;28;20140;-79
2021/07/31 07:24:48;;;;;;;4.53;1.40;;;;;;;33.74;24.01;99864.34;5010388;28;20077;-78
2021/07/31 07:27:16;;;;;;;8.57;1.60;;;;;;;33.59;23.74;99865.00;5012330;28;20139;-80
2021/07/31 07:29:44;;;;;;;7.63;1.75;;;;;;;33.58;23.56;99860.66;5014379;28;20060;-79
2021/07/31 07:32:11;;;;;;;6.43;1.38;;;;;;;34.63;22.72;99870.91;5046458;28;20094;-83
2021/07/31 07:34:38;;;;;;;8.40;1.58;;;;;;;34.63;22.80;99862.69;5016391;28;20055;-79
2021/07/31 07:37:06;;;;;;;17.77;2.08;;;;;;;34.61;22.68;99871.16;5021628;28;20501;-82
2021/07/31 07:39:33;;;;;;;9.70;1.90;;;;;;;34.76;21.69;99864.94;5019543;28;20128;-81
2021/07/31 07:42:03;;;;;;;6.38;1.65;;;;;;;33.10;23.87;99856.91;5042021;28;20053;-84
2021/07/31 07:44:30;;;;;;;3.72;1.45;;;;;;;34.46;22.76;99847.34;5031031;28;20049;-83
2021/07/31 07:47:00;;;;;;;4.45;1.70;;;;;;;33.90;23.21;99849.69;5016633;28;20127;-80
2021/07/31 07:49:27;;;;;;;3.60;1.20;;;;;;;34.52;23.03;99853.63;5009228;28;20041;-79
2021/07/31 07:51:54;;;;;;;5.43;1.85;;;;;;;34.85;22.23;99846.91;5038483;28;20081;-80
2021/07/31 07:54:22;;;;;;;5.55;1.52;;;;;;;33.40;24.32;99845.44;5047018;28;20045;-80
2021/07/31 07:56:49;;;;;;;6.05;1.95;;;;;;;34.26;23.47;99848.00;5032916;28;20541;-82
2021/07/31 07:59:16;;;;;;;5.13;1.52;;;;;;;33.18;24.22;99836.53;5016353;28;20076;-79
2021/07/31 08:01:46;;;;;;;3.47;1.40;;;;;;;34.81;22.34;99843.09;5020170;28;20272;-80
2021/07/31 08:04:14;;;;;;;11.40;2.00;;;;;;;33.79;23.73;99847.16;5013259;28;20450;-81
2021/07/31 08:06:42;;;;;;;5.82;1.60;;;;;;;33.51;24.08;99835.50;5032607;28;20115;-79
2021/07/31 08:09:09;;;;;;;3.70;1.58;;;;;;;35.65;21.92;99847.31;5030883;28;20100;-79
2021/07/31 08:11:36;;;;;;;5.40;1.38;;;;;;;33.21;23.65;99846.94;5026921;28;20092;-82
2021/07/31 08:14:03;;;;;;;8.63;1.35;;;;;;;30.16;27.33;99852.53;5017111;28;20489;-79
2021/07/31 08:16:30;;;;;;;5.05;1.38;;;;;;;28.66;29.44;99856.25;5017107;28;20148;-80
2021/07/31 08:18:59;;;;;;;3.80;0.93;;;;;;;28.68;29.50;99858.72;4999728;28;20052;-80
2021/07/31 08:21:29;;;;;;;3.80;1.08;;;;;;;29.89;27.84;99868.44;5033566;28;20065;-80
2021/07/31 08:23:56;;;;;;;2.40;1.00;;;;;;;32.86;24.58;99866.44;5009359;28;20125;-79
2021/07/31 08:26:23;;;;;;;3.42;1.08;;;;;;;33.47;22.71;99862.47;5026723;28;20081;-88
2021/07/31 08:28:50;;;;;;;2.92;1.10;;;;;;;33.29;22.92;99871.00;5058365;28;20080;-80
2021/07/31 08:31:18;;;;;;;6.03;1.00;;;;;;;32.90;23.79;99875.75;5037091;28;20049;-80
2021/07/31 08:33:46;;;;;;;4.72;1.13;;;;;;;32.94;23.68;99861.38;5024888;28;20080;-80
2021/07/31 08:36:13;;;;;;;4.93;1.20;;;;;;;34.36;21.76;99860.09;5020820;28;20063;-81
2021/07/31 08:38:40;;;;;;;4.47;1.23;;;;;;;33.26;22.56;99860.59;5030345;28;20052;-80
2021/07/31 08:41:08;;;;;;;7.55;1.35;;;;;;;31.19;25.08;99856.28;5021299;28;20166;-78
2021/07/31 08:43:35;;;;;;;9.02;1.02;;;;;;;30.00;26.34;99851.34;4997445;28;20606;-84
2021/07/31 08:46:06;;;;;;;6.75;1.58;;;;;;;29.15;27.65;99853.53;5005417;28;20065;-79
2021/07/31 08:48:34;;;;;;;3.70;1.30;;;;;;;28.37;29.13;99860.56;5013487;28;20080;-79
2021/07/31 08:51:03;;;;;;;10.20;1.60;;;;;;;28.26;29.10;99853.97;5030549;28;20108;-79
2021/07/31 08:53:30;;;;;;;5.97;1.50;;;;;;;26.59;31.45;99849.09;5013249;28;20145;-79
2021/07/31 08:55:59;;;;;;;4.72;1.25;;;;;;;26.26;31.62;99856.22;5017360;28;20045;-78
2021/07/31 08:58:27;;;;;;;3.92;1.00;;;;;;;25.71;33.79;99860.19;4995746;28;20492;-78
2021/07/31 09:00:56;;;;;;;9.85;1.20;;;;;;;25.54;34.01;99864.34;5032530;28;20516;-79
2021/07/31 09:03:23;;;;;;;11.57;1.40;;;;;;;25.79;33.41;99849.22;4998582;28;20131;-81
2021/07/31 09:05:51;;;;;;;2.10;1.02;;;;;;;25.29;33.79;99853.31;5036486;28;20049;-79
2021/07/31 09:08:18;;;;;;;3.65;1.00;;;;;;;25.49;34.08;99851.50;5029227;28;20399;-82
2021/07/31 09:10:46;;;;;;;3.80;1.27;;;;;;;25.83;34.20;99857.75;5016146;28;20531;-78
2021/07/31 09:13:17;;;;;;;4.40;1.00;;;;;;;25.68;33.91;99858.75;5005833;28;20478;-78
2021/07/31 09:15:47;;;;;;;2.33;1.08;;;;;;;25.03;35.23;99846.81;5032281;28;20107;-79
2021/07/31 09:18:32;;;;;;;6.90;1.55;;;;;;;25.27;35.55;99858.94;5015170;28;20393;-80
2021/07/31 09:21:04;;;;;;;3.50;1.30;;;;;;;25.27;35.80;99842.75;4998274;28;20073;-79
2021/07/31 09:23:51;;;;;;;4.35;1.00;;;;;;;25.70;34.78;99853.97;5008545;28;20056;-80
2021/07/31 09:26:21;;;;;;;12.23;2.13;;;;;;;25.74;35.19;99857.91;5015702;28;20369;-79
2021/07/31 09:29:09;;;;;;;4.47;1.38;;;;;;;24.99;36.32;99845.53;5025796;28;20065;-83
2021/07/31 09:31:39;;;;;;;4.65;1.63;;;;;;;24.32;38.03;99857.06;5000884;28;20556;-85
2021/07/31 09:34:08;;;;;;;10.25;1.55;;;;;;;24.76;37.25;99848.59;5034480;28;20086;-81
2021/07/31 09:36:42;;;;;;;6.53;1.52;;;;;;;24.85;36.45;99849.25;5029899;28;20503;-78
2021/07/31 09:39:10;;;;;;;3.67;1.33;;;;;;;25.11;36.45;99854.72;5017464;28;20107;-80
2021/07/31 09:41:39;;;;;;;5.22;1.45;;;;;;;25.98;34.69;99848.41;5001053;28;20136;-80
2021/07/31 09:44:16;;;;;;;13.15;1.60;;;;;;;26.41;34.43;99833.56;5014976;28;20057;-82
2021/07/31 09:46:45;;;;;;;6.90;1.40;;;;;;;26.66;33.60;99845.34;5023103;28;20512;-84
2021/07/31 09:49:18;;;;;;;7.32;1.58;;;;;;;26.15;34.38;99848.75;5006851;28;20038;-82
2021/07/31 09:51:50;;;;;;;6.15;1.13;;;;;;;25.48;35.44;99847.13;5015159;28;20585;-82
2021/07/31 09:54:21;;;;;;;9.90;1.38;;;;;;;25.33;35.85;99841.94;5013347;28;20086;-80
2021/07/31 09:56:50;;;;;;;6.25;1.15;;;;;;;25.18;35.69;99849.38;5028899;28;20091;-80
2021/07/31 09:59:19;;;;;;;4.55;1.70;;;;;;;25.25;35.46;99834.03;5031182;28;20102;-79
2021/07/31 10:02:00;;;;;;;4.57;1.98;;;;;;;25.35;34.99;99842.56;5000544;28;20059;-81
2021/07/31 10:04:28;;;;;;;6.68;1.10;;;;;;;25.04;36.15;99834.16;5016600;28;20554;-81
2021/07/31 10:06:55;;;;;;;6.38;1.10;;;;;;;25.45;35.67;99839.47;5008150;28;20173;-79
2021/07/31 10:09:23;;;;;;;2.92;1.10;;;;;;;25.38;35.66;99836.75;5031670;28;20052;-80
2021/07/31 10:12:26;;;;;;;2.40;0.90;;;;;;;25.50;35.11;99836.97;5028016;28;20038;-78
2021/07/31 10:14:54;;;;;;;4.55;1.42;;;;;;;25.37;35.70;99839.66;5044193;28;20085;-82
2021/07/31 10:17:29;;;;;;;5.50;1.30;;;;;;;25.71;34.71;99834.09;5026025;28;20048;-83
2021/07/31 10:19:57;;;;;;;1.52;0.90;;;;;;;26.38;33.91;99842.06;5015825;28;20132;-80
2021/07/31 10:22:44;;;;;;;5.30;1.45;;;;;;;26.37;34.40;99851.22;5043953;28;20041;-81
2021/07/31 10:25:12;;;;;;;4.57;1.23;;;;;;;26.41;33.34;99845.19;5012310;28;20048;-79
2021/07/31 10:27:40;;;;;;;10.40;1.38;;;;;;;26.18;34.49;99848.34;5003893;28;20119;-79
2021/07/31 10:30:25;;;;;;;8.05;1.20;;;;;;;25.93;34.50;99840.09;5008826;28;20073;-80
2021/07/31 10:32:52;;;;;;;6.50;1.48;;;;;;;26.89;32.76;99835.88;5026381;28;20057;-79
2021/07/31 10:35:37;;;;;;;9.70;1.52;;;;;;;26.67;32.98;99846.16;5002425;28;20045;-79
2021/07/31 10:38:09;;;;;;;3.72;1.05;;;;;;;26.43;33.06;99842.25;5006850;28;20234;-78
2021/07/31 10:40:41;;;;;;;7.97;1.40;;;;;;;25.71;34.31;99854.78;5036635;28;20049;-80
2021/07/31 10:43:11;;;;;;;7.78;1.58;;;;;;;25.90;34.58;99866.66;5041156;28;20045;-79
2021/07/31 10:45:39;;;;;;;4.15;1.25;;;;;;;25.96;34.51;99861.25;5036732;28;20131;-79
2021/07/31 10:48:22;;;;;;;7.97;1.48;;;;;;;25.33;35.01;99859.97;5033788;28;20400;-80
2021/07/31 10:50:52;;;;;;;5.05;0.98;;;;;;;25.40;35.30;99871.59;5036706;28;20108;-81
2021/07/31 10:53:21;;;;;;;2.03;1.20;;;;;;;25.43;35.55;99866.59;5036450;28;20055;-79
2021/07/31 10:55:48;;;;;;;4.55;1.00;;;;;;;25.11;36.02;99870.06;5039996;28;20159;-80
2021/07/31 10:58:17;;;;;;;6.45;1.00;;;;;;;25.08;36.03;99862.38;5037536;28;20048;-79
2021/07/31 11:00:54;;;;;;;5.43;0.90;;;;;;;25.17;35.65;99864.72;5028097;28;20072;-81
2021/07/31 11:03:23;;;;;;;10.30;1.40;;;;;;;25.05;36.57;99874.38;5025316;28;20083;-82
2021/07/31 11:05:51;;;;;;;3.13;1.00;;;;;;;25.42;36.11;99862.25;5062295;28;20041;-80
2021/07/31 11:08:19;;;;;;;7.35;1.80;;;;;;;25.57;34.93;99864.75;5040570;28;20098;-81
2021/07/31 11:10:49;;;;;;;6.57;1.42;;;;;;;25.19;35.94;99865.31;5014433;28;20084;-81
2021/07/31 11:13:16;;;;;;;4.30;1.45;;;;;;;25.01;37.14;99865.03;5022937;28;20559;-80
2021/07/31 11:15:55;;;;;;;5.70;1.02;;;;;;;25.30;36.12;99876.53;5033249;28;20128;-79
2021/07/31 11:18:23;;;;;;;2.67;0.80;;;;;;;25.55;36.34;99876.78;5005586;28;20104;-80
2021/07/31 11:20:50;;;;;;;3.78;1.02;;;;;;;26.19;34.95;99884.25;5029975;28;20064;-78
2021/07/31 11:23:19;;;;;;;3.33;1.25;;;;;;;26.31;34.54;99876.34;5014144;28;20461;-81
2021/07/31 11:25:47;;;;;;;9.40;1.00;;;;;;;26.13;34.52;99877.84;5029187;28;20068;-81
2021/07/31 11:28:15;;;;;;;4.40;1.20;;;;;;;26.25;34.16;99889.66;5020977;28;20076;-81
2021/07/31 11:30:44;;;;;;;9.73;1.02;;;;;;;25.47;35.71;99885.88;5051521;28;20055;-79
2021/07/31 11:33:17;;;;;;;1.90;0.80;;;;;;;25.08;36.12;99884.78;5002864;28;20068;-79
2021/07/31 11:35:45;;;;;;;6.05;1.50;;;;;;;25.51;35.37;99885.28;5016705;28;20049;-78
2021/07/31 11:38:25;;;;;;;4.20;1.45;;;;;;;25.48;34.67;99882.16;5008683;28;20098;-78